KOQT

Oak Ridge Airport

Tennessee, USA
METAR KOQT 180053Z AUTO 00000KT 10SM CLR 13/11 A3034 RMK AO2 SLP276 T01280106
Observed Flight Rules
Oct-18 @ 00:53 UTC (19 minutes ago) Visual Flight Rules
Visibility Clouds
10 miles
  • Clear skies
Temperatures Readings
Current 13°C / 55°F
Dewpoint 11°C / 52°F
Humidity 88%
Altimeter 30.34" Hg
Pressure 1027.6 hPa
Elevation 277
METAR KOQT 180053Z AUTO 00000KT 10SM CLR 13/11 A3034 RMK AO2 SLP276 T01280106
Observed Flight Rules
Oct-18 @ 00:53 UTC
(19 minutes ago)
VFR
Clouds
  • Clear skies
Temperature Dewpoint
13°C / 55°F 11°C / 52°F
Humidity Altimeter Pressure
88% 30.34" Hg 1027.6 hPa